createdAt,value
2023-06-06T00:01:02.912Z,5.22
2023-06-06T00:03:36.282Z,4.95
2023-06-06T00:06:09.753Z,5.03
2023-06-06T00:08:45.168Z,5.00
2023-06-06T00:11:18.709Z,5.28
2023-06-06T00:13:51.976Z,5.38
2023-06-06T00:16:28.995Z,5.13
2023-06-06T00:19:02.564Z,4.90
2023-06-06T00:21:37.215Z,4.93
2023-06-06T00:24:12.711Z,5.15
2023-06-06T00:26:46.122Z,5.30
2023-06-06T00:29:19.477Z,5.28
2023-06-06T00:31:52.873Z,5.53
2023-06-06T00:34:26.538Z,4.85
2023-06-06T00:36:59.876Z,6.03
2023-06-06T00:39:34.555Z,4.85
2023-06-06T00:42:08.666Z,4.95
2023-06-06T00:44:41.992Z,4.55
2023-06-06T00:47:15.932Z,4.85
2023-06-06T00:49:51.341Z,5.35
2023-06-06T00:52:25.718Z,4.40
2023-06-06T00:55:00.882Z,4.88
2023-06-06T00:57:34.288Z,5.25
2023-06-06T01:00:09.532Z,5.55
2023-06-06T01:02:45.064Z,4.75
2023-06-06T01:05:20.365Z,5.05
2023-06-06T01:07:55.050Z,5.45
2023-06-06T01:10:31.591Z,4.15
2023-06-06T01:13:12.901Z,4.32
2023-06-06T01:15:54.067Z,5.07
2023-06-06T01:18:27.867Z,5.00
2023-06-06T01:23:37.960Z,4.80
2023-06-06T01:26:13.719Z,4.38
2023-06-06T01:28:47.062Z,4.38
2023-06-06T01:31:24.347Z,4.50
2023-06-06T01:34:03.462Z,4.60
2023-06-06T01:36:47.626Z,3.90
2023-06-06T01:41:59.773Z,4.10
2023-06-06T01:44:34.767Z,3.75
2023-06-06T01:47:09.495Z,5.00
2023-06-06T01:49:46.422Z,4.65
2023-06-06T01:52:19.718Z,3.78
2023-06-06T01:54:56.428Z,4.60
2023-06-06T01:57:29.759Z,4.90
2023-06-06T02:00:05.507Z,4.63
2023-06-06T02:02:47.665Z,4.28
2023-06-06T02:05:21.878Z,4.38
2023-06-06T02:07:55.189Z,4.03
2023-06-06T02:10:32.034Z,4.30
2023-06-06T02:13:05.540Z,4.93
2023-06-06T02:15:38.746Z,3.95
2023-06-06T02:18:12.397Z,4.47
2023-06-06T02:20:45.826Z,4.15
2023-06-06T02:23:20.793Z,4.80
2023-06-06T02:25:56.368Z,4.00
2023-06-06T02:28:31.311Z,3.67
2023-06-06T02:31:04.883Z,3.47
2023-06-06T02:33:39.251Z,4.22
2023-06-06T02:36:15.996Z,4.25
2023-06-06T02:38:49.325Z,4.43
2023-06-06T02:41:24.332Z,4.18
2023-06-06T02:43:57.903Z,4.05
2023-06-06T02:46:31.995Z,3.83
2023-06-06T02:49:07.179Z,3.40
2023-06-06T02:51:41.501Z,4.28
2023-06-06T02:54:14.793Z,3.25
2023-06-06T02:56:49.513Z,3.85
2023-06-06T02:59:23.059Z,4.18
2023-06-06T03:01:56.404Z,4.40
2023-06-06T03:04:29.786Z,3.75
2023-06-06T03:07:03.224Z,4.57
2023-06-06T03:09:36.500Z,3.95
2023-06-06T03:12:12.576Z,3.92
2023-06-06T03:14:56.463Z,3.42
2023-06-06T03:17:34.445Z,3.45
2023-06-06T03:20:09.094Z,3.42
2023-06-06T03:22:44.616Z,3.25
2023-06-06T03:25:20.805Z,3.60
2023-06-06T03:27:55.850Z,4.15
2023-06-06T03:30:29.592Z,3.70
2023-06-06T03:33:04.779Z,3.53
2023-06-06T03:35:38.157Z,3.92
2023-06-06T03:38:12.109Z,3.70
2023-06-06T03:40:45.440Z,3.88
2023-06-06T03:43:20.280Z,3.35
2023-06-06T03:45:53.598Z,3.63
2023-06-06T03:48:27.043Z,3.58
2023-06-06T03:51:00.261Z,4.07
2023-06-06T03:53:33.698Z,3.63
2023-06-06T03:56:07.878Z,3.38
2023-06-06T03:58:43.191Z,3.92
2023-06-06T04:01:16.631Z,3.60
2023-06-06T04:03:50.085Z,3.60
2023-06-06T04:06:23.435Z,3.00
2023-06-06T04:08:59.306Z,3.47
2023-06-06T04:11:33.093Z,3.40
2023-06-06T04:14:07.764Z,3.67
2023-06-06T04:16:41.547Z,3.25
2023-06-06T04:21:48.277Z,3.38
2023-06-06T04:24:21.575Z,3.42
2023-06-06T04:26:54.919Z,3.38
2023-06-06T04:29:29.806Z,3.80
2023-06-06T04:32:03.155Z,3.40
2023-06-06T04:34:41.124Z,3.53
2023-06-06T04:37:18.700Z,3.05
2023-06-06T04:39:54.511Z,3.65
2023-06-06T04:42:33.904Z,3.63
2023-06-06T04:45:10.450Z,3.10
2023-06-06T04:50:33.917Z,3.00
2023-06-06T04:53:07.210Z,3.33
2023-06-06T04:55:40.638Z,4.07
2023-06-06T04:58:15.308Z,3.45
2023-06-06T05:00:48.758Z,3.90
2023-06-06T05:03:22.091Z,3.03
2023-06-06T05:05:57.682Z,2.95
2023-06-06T05:08:32.985Z,3.72
2023-06-06T05:11:06.425Z,4.05
2023-06-06T05:13:39.694Z,3.65
2023-06-06T05:16:13.046Z,3.45
2023-06-06T05:18:46.375Z,3.65
2023-06-06T05:21:21.542Z,3.35
2023-06-06T05:23:56.036Z,3.35
2023-06-06T05:26:30.261Z,3.13
2023-06-06T05:29:04.508Z,3.30
2023-06-06T05:34:11.061Z,3.22
2023-06-06T05:36:45.949Z,3.33
2023-06-06T05:39:20.640Z,3.38
2023-06-06T05:41:56.092Z,3.03
2023-06-06T05:44:29.923Z,3.47
2023-06-06T05:47:03.146Z,3.70
2023-06-06T05:49:36.393Z,3.63
2023-06-06T05:52:11.151Z,3.88
2023-06-06T05:54:50.207Z,3.55
2023-06-06T05:57:43.753Z,3.58
2023-06-06T06:00:18.693Z,3.45
2023-06-06T06:02:52.976Z,3.40
2023-06-06T06:05:29.202Z,3.83
2023-06-06T06:08:05.598Z,3.85
2023-06-06T06:10:40.264Z,3.45
2023-06-06T06:13:13.561Z,3.50
2023-06-06T06:15:46.859Z,2.67
2023-06-06T06:18:20.143Z,3.00
2023-06-06T06:20:53.464Z,2.53
2023-06-06T06:23:28.858Z,3.45
2023-06-06T06:26:02.235Z,3.50
2023-06-06T06:28:35.641Z,3.75
2023-06-06T06:31:09.411Z,2.95
2023-06-06T06:33:42.800Z,3.47
2023-06-06T06:36:16.056Z,3.30
2023-06-06T06:38:50.750Z,3.05
2023-06-06T06:41:24.045Z,2.78
2023-06-06T06:43:57.305Z,3.25
2023-06-06T06:46:30.682Z,2.92
2023-06-06T06:49:04.194Z,3.17
2023-06-06T06:51:38.433Z,3.15
2023-06-06T06:54:14.206Z,3.35
2023-06-06T06:56:47.583Z,3.70
2023-06-06T06:59:21.524Z,3.25
2023-06-06T07:01:54.818Z,2.88
2023-06-06T07:04:29.519Z,2.58
2023-06-06T07:07:02.819Z,2.85
2023-06-06T07:09:37.497Z,4.05
2023-06-06T07:12:12.039Z,3.10
2023-06-06T07:14:45.521Z,3.60
2023-06-06T07:17:18.811Z,3.83
2023-06-06T07:19:52.073Z,3.73
2023-06-06T07:22:25.376Z,3.72
2023-06-06T07:25:00.029Z,3.47
2023-06-06T07:27:36.420Z,3.47
2023-06-06T07:30:13.638Z,4.68
2023-06-06T07:32:48.816Z,3.13
2023-06-06T07:35:22.221Z,4.03
2023-06-06T07:37:55.623Z,3.80
2023-06-06T07:40:30.577Z,4.13
2023-06-06T07:43:03.897Z,3.15
2023-06-06T07:45:37.249Z,3.00
2023-06-06T07:48:10.671Z,3.25
2023-06-06T07:50:44.105Z,3.05
2023-06-06T07:53:18.144Z,2.97
2023-06-06T07:55:52.874Z,2.85
2023-06-06T07:58:28.724Z,3.58
2023-06-06T08:01:02.039Z,2.80
2023-06-06T08:03:35.881Z,2.90
2023-06-06T08:06:09.728Z,3.65
2023-06-06T08:08:43.572Z,3.85
2023-06-06T08:11:18.564Z,4.50
2023-06-06T08:13:51.925Z,4.65
2023-06-06T08:16:25.266Z,4.28
2023-06-06T08:18:58.903Z,3.95
2023-06-06T08:24:05.725Z,4.15
2023-06-06T08:26:40.504Z,4.57
2023-06-06T08:29:15.664Z,4.90
2023-06-06T08:31:48.942Z,5.03
2023-06-06T08:34:22.352Z,5.68
2023-06-06T08:36:55.983Z,4.22
2023-06-06T08:42:05.780Z,4.43
2023-06-06T08:44:39.972Z,3.60
2023-06-06T08:47:14.561Z,3.75
2023-06-06T08:49:47.821Z,3.25
2023-06-06T08:52:22.611Z,3.25
2023-06-06T08:54:56.473Z,3.67
2023-06-06T09:02:46.731Z,3.83
2023-06-06T09:05:22.103Z,3.45
2023-06-06T09:07:55.604Z,3.10
2023-06-06T09:10:28.953Z,2.63
2023-06-06T09:13:03.587Z,2.92
2023-06-06T09:15:36.922Z,3.20
2023-06-06T09:18:10.341Z,3.45
2023-06-06T09:20:44.575Z,2.75
2023-06-06T09:23:17.998Z,3.13
2023-06-06T09:25:51.328Z,3.13
2023-06-06T09:28:37.821Z,2.95
2023-06-06T09:31:28.766Z,2.60
2023-06-06T09:34:02.831Z,2.55
2023-06-06T09:36:36.799Z,2.90
2023-06-06T09:39:13.168Z,3.17
2023-06-06T09:41:48.118Z,2.70
2023-06-06T09:44:24.708Z,3.67
2023-06-06T09:47:00.880Z,2.70
2023-06-06T09:49:35.028Z,2.97
2023-06-06T09:52:14.949Z,2.80
2023-06-06T09:54:48.349Z,2.92
2023-06-06T09:57:22.838Z,2.85
2023-06-06T10:00:02.241Z,2.85
2023-06-06T10:02:47.710Z,3.10
2023-06-06T10:05:29.278Z,2.30
2023-06-06T10:08:03.660Z,3.15
2023-06-06T10:10:37.021Z,2.97
2023-06-06T10:13:13.917Z,2.63
2023-06-06T10:15:49.247Z,2.70
2023-06-06T10:18:23.579Z,2.78
2023-06-06T10:20:58.690Z,3.15
2023-06-06T10:23:32.335Z,3.13
2023-06-06T10:26:09.697Z,2.80
2023-06-06T10:28:50.490Z,2.40
2023-06-06T10:31:33.960Z,4.97
2023-06-06T10:34:11.076Z,3.40
2023-06-06T10:36:46.707Z,3.00
2023-06-06T10:39:21.562Z,3.08
2023-06-06T10:41:56.652Z,2.90
2023-06-06T10:44:37.041Z,3.20
2023-06-06T10:47:34.592Z,3.30
2023-06-06T10:50:25.026Z,3.72
2023-06-06T10:53:00.780Z,3.65
2023-06-06T10:55:46.386Z,2.85
2023-06-06T10:58:25.780Z,3.03
2023-06-06T11:01:01.590Z,3.38
2023-06-06T11:03:39.061Z,2.53
2023-06-06T11:06:14.735Z,3.15
2023-06-06T11:08:51.315Z,4.03
2023-06-06T11:11:27.854Z,3.03
2023-06-06T11:14:06.434Z,2.90
2023-06-06T11:17:13.721Z,3.00
2023-06-06T11:19:48.497Z,2.65
2023-06-06T11:22:23.538Z,3.33
2023-06-06T11:24:58.193Z,2.70
2023-06-06T11:27:33.333Z,3.47
2023-06-06T11:30:09.556Z,3.15
2023-06-06T11:32:42.988Z,3.38
2023-06-06T11:35:22.265Z,3.00
2023-06-06T11:37:56.493Z,3.35
2023-06-06T11:40:31.417Z,3.03
2023-06-06T11:43:05.065Z,2.45
2023-06-06T11:45:38.959Z,3.28
2023-06-06T11:48:24.023Z,3.13
2023-06-06T11:50:58.807Z,3.25
2023-06-06T11:53:34.082Z,3.28
2023-06-06T11:56:07.921Z,2.53
2023-06-06T12:01:16.390Z,2.70
2023-06-06T12:03:51.691Z,3.25
2023-06-06T12:06:28.975Z,2.60
2023-06-06T12:09:03.029Z,2.67
2023-06-06T12:11:36.318Z,2.50
2023-06-06T12:14:13.813Z,3.17
2023-06-06T12:16:48.438Z,3.83
2023-06-06T12:19:22.656Z,1.75
2023-06-06T12:21:57.378Z,2.60
2023-06-06T12:24:31.912Z,2.88
2023-06-06T12:27:06.123Z,2.65
2023-06-06T12:29:52.045Z,3.15
2023-06-06T12:32:27.866Z,3.10
2023-06-06T12:35:03.349Z,2.88
2023-06-06T12:37:42.466Z,3.10
2023-06-06T12:40:17.383Z,2.67
2023-06-06T12:42:54.433Z,3.72
2023-06-06T12:45:29.028Z,2.90
2023-06-06T12:48:02.632Z,2.40
2023-06-06T12:50:35.933Z,2.70
2023-06-06T12:53:12.834Z,3.10
2023-06-06T12:55:46.456Z,3.42
2023-06-06T12:58:19.807Z,3.03
2023-06-06T13:00:53.188Z,3.15
2023-06-06T13:03:26.536Z,2.97
2023-06-06T13:05:59.874Z,2.63
2023-06-06T13:08:38.828Z,3.70
2023-06-06T13:11:12.806Z,3.10
2023-06-06T13:13:46.448Z,2.70
2023-06-06T13:16:19.970Z,3.70
2023-06-06T13:18:54.924Z,2.95
2023-06-06T13:21:28.356Z,2.78
2023-06-06T13:24:03.320Z,2.97
2023-06-06T13:26:36.720Z,3.28
2023-06-06T13:29:10.908Z,3.65
2023-06-06T13:31:44.626Z,3.83
2023-06-06T13:36:51.553Z,3.70
2023-06-06T13:39:27.417Z,3.80
2023-06-06T13:42:01.104Z,4.80
2023-06-06T13:44:34.382Z,3.58
2023-06-06T13:47:08.009Z,3.45
2023-06-06T13:49:41.309Z,4.32
2023-06-06T13:52:14.552Z,3.38
2023-06-06T13:54:53.271Z,3.20
2023-06-06T13:57:30.329Z,3.25
2023-06-06T14:00:06.786Z,3.20
2023-06-06T14:02:40.979Z,3.83
2023-06-06T14:05:14.321Z,3.50
2023-06-06T14:07:47.599Z,3.80
2023-06-06T14:10:22.329Z,3.75
2023-06-06T14:12:55.698Z,3.75
2023-06-06T14:15:29.058Z,3.13
2023-06-06T14:18:02.397Z,3.55
2023-06-06T14:20:49.542Z,3.78
2023-06-06T14:23:22.891Z,4.50
2023-06-06T14:25:57.525Z,4.00
2023-06-06T14:28:31.583Z,4.35
2023-06-06T14:31:05.249Z,3.88
2023-06-06T14:33:38.580Z,3.35
2023-06-06T14:36:12.521Z,3.78
2023-06-06T14:38:45.853Z,4.97
2023-06-06T14:41:20.537Z,3.53
2023-06-06T14:43:57.269Z,4.80
2023-06-06T14:46:30.657Z,5.75
2023-06-06T14:49:03.971Z,5.93
2023-06-06T14:51:37.537Z,5.32
2023-06-06T14:54:10.844Z,6.07
2023-06-06T14:56:45.504Z,5.13
2023-06-06T14:59:18.906Z,7.13
2023-06-06T15:01:53.491Z,5.63
2023-06-06T15:04:28.569Z,5.25
2023-06-06T15:07:03.019Z,5.55
2023-06-06T15:09:37.640Z,5.57
2023-06-06T15:12:13.959Z,5.60
2023-06-06T15:14:47.602Z,6.32
2023-06-06T15:17:21.206Z,5.93
2023-06-06T15:19:54.504Z,5.95
2023-06-06T15:22:27.803Z,5.55
2023-06-06T15:25:01.091Z,5.53
2023-06-06T15:27:35.954Z,5.65
2023-06-06T15:30:11.283Z,5.88
2023-06-06T15:32:44.624Z,5.55
2023-06-06T15:35:17.999Z,5.32
2023-06-06T15:37:51.748Z,5.07
2023-06-06T15:40:25.012Z,5.93
2023-06-06T15:42:59.800Z,5.05
2023-06-06T15:45:33.282Z,5.07
2023-06-06T15:48:07.576Z,5.15
2023-06-06T15:50:41.013Z,4.40
2023-06-06T15:53:14.435Z,5.20
2023-06-06T15:55:48.044Z,4.55
2023-06-06T15:58:22.638Z,4.53
2023-06-06T16:00:55.911Z,5.00
2023-06-06T16:03:29.530Z,4.75
2023-06-06T16:06:02.805Z,3.88
2023-06-06T16:08:36.125Z,4.40
2023-06-06T16:11:09.725Z,4.15
2023-06-06T16:13:44.822Z,4.22
2023-06-06T16:16:18.246Z,4.35
2023-06-06T16:18:51.592Z,4.15
2023-06-06T16:21:24.898Z,4.65
2023-06-06T16:23:58.260Z,4.82
2023-06-06T16:26:31.584Z,4.30
2023-06-06T16:29:06.539Z,3.85
2023-06-06T16:31:39.863Z,4.20
2023-06-06T16:34:13.391Z,4.10
2023-06-06T16:36:46.933Z,4.25
2023-06-06T16:39:20.429Z,4.03
2023-06-06T16:41:53.702Z,4.18
2023-06-06T16:44:28.339Z,3.53
2023-06-06T16:47:01.708Z,4.00
2023-06-06T16:49:35.205Z,3.53
2023-06-06T16:52:08.857Z,3.75
2023-06-06T16:54:42.093Z,3.90
2023-06-06T16:57:15.659Z,3.85
2023-06-06T16:59:50.824Z,3.70
2023-06-06T17:02:27.995Z,3.28
2023-06-06T17:05:01.785Z,3.67
2023-06-06T17:07:35.099Z,3.97
2023-06-06T17:10:09.578Z,3.47
2023-06-06T17:12:44.493Z,3.53
2023-06-06T17:15:19.135Z,4.05
2023-06-06T17:17:52.478Z,3.50
2023-06-06T17:20:29.159Z,3.78
2023-06-06T17:23:02.435Z,3.58
2023-06-06T17:25:50.547Z,3.60
2023-06-06T17:28:24.837Z,3.80
2023-06-06T17:30:59.794Z,3.80
2023-06-06T17:33:33.358Z,4.32
2023-06-06T17:36:07.674Z,3.63
2023-06-06T17:38:40.992Z,4.35
2023-06-06T17:41:14.250Z,3.83
2023-06-06T17:43:47.643Z,3.90
2023-06-06T17:46:22.588Z,3.85
2023-06-06T17:49:02.979Z,5.07
2023-06-06T17:51:36.951Z,4.25
2023-06-06T17:54:10.278Z,4.10
2023-06-06T17:56:44.002Z,4.65
2023-06-06T17:59:17.596Z,4.57
2023-06-06T18:01:52.322Z,4.85
2023-06-06T18:04:25.700Z,4.78
2023-06-06T18:06:59.040Z,4.53
2023-06-06T18:09:32.268Z,4.90
2023-06-06T18:12:06.687Z,4.70
2023-06-06T18:14:40.015Z,4.75
2023-06-06T18:17:14.644Z,4.85
2023-06-06T18:19:47.959Z,4.30
2023-06-06T18:22:21.282Z,4.35
2023-06-06T18:24:54.642Z,4.60
2023-06-06T18:27:27.891Z,5.07
2023-06-06T18:30:01.946Z,4.18
2023-06-06T18:32:37.383Z,4.22
2023-06-06T18:35:11.238Z,4.38
2023-06-06T18:40:21.377Z,4.78
2023-06-06T18:42:55.090Z,4.47
2023-06-06T18:48:04.111Z,4.85
2023-06-06T18:50:37.530Z,4.55
2023-06-06T18:53:10.876Z,4.10
2023-06-06T18:55:44.160Z,4.75
2023-06-06T18:58:17.458Z,5.03
2023-06-06T19:00:50.926Z,4.50
2023-06-06T19:03:25.795Z,4.00
2023-06-06T19:05:59.280Z,4.68
2023-06-06T19:08:33.838Z,5.45
2023-06-06T19:11:08.082Z,4.70
2023-06-06T19:13:41.365Z,6.88
2023-06-06T19:16:14.661Z,6.28
2023-06-06T19:18:49.980Z,4.93
2023-06-06T19:21:23.254Z,5.50
2023-06-06T19:23:56.629Z,4.50
2023-06-06T19:26:29.920Z,6.63
2023-06-06T19:29:03.283Z,4.60
2023-06-06T19:31:39.200Z,4.82
2023-06-06T19:34:13.990Z,5.22
2023-06-06T19:36:47.252Z,4.95
2023-06-06T19:39:20.779Z,5.03
2023-06-06T19:41:54.037Z,5.00
2023-06-06T19:44:27.268Z,4.88
2023-06-06T19:47:00.500Z,5.53
2023-06-06T19:49:35.556Z,5.15
2023-06-06T19:52:10.554Z,5.20
2023-06-06T19:54:43.888Z,4.63
2023-06-06T19:57:17.501Z,5.32
2023-06-06T19:59:50.832Z,4.35
2023-06-06T20:02:25.228Z,4.60
2023-06-06T20:05:00.027Z,5.25
2023-06-06T20:07:33.300Z,5.95
2023-06-06T20:10:08.087Z,4.82
2023-06-06T20:12:42.189Z,4.55
2023-06-06T20:15:16.011Z,5.15
2023-06-06T20:17:49.381Z,5.50
2023-06-06T20:20:24.047Z,5.50
2023-06-06T20:22:57.423Z,4.82
2023-06-06T20:25:30.714Z,5.22
2023-06-06T20:28:06.686Z,6.55
2023-06-06T20:30:48.482Z,5.25
2023-06-06T20:33:22.137Z,5.40
2023-06-06T20:35:59.053Z,4.95
2023-06-06T20:38:32.415Z,4.50
2023-06-06T20:41:05.795Z,4.97
2023-06-06T20:43:39.100Z,5.20
2023-06-06T20:46:12.419Z,5.75
2023-06-06T20:48:45.724Z,5.30
2023-06-06T20:51:20.381Z,5.60
2023-06-06T20:53:53.702Z,5.97
2023-06-06T20:56:27.639Z,5.30
2023-06-06T20:59:01.871Z,5.68
2023-06-06T21:01:35.211Z,5.00
2023-06-06T21:04:08.644Z,4.93
2023-06-06T21:06:43.349Z,4.90
2023-06-06T21:09:18.726Z,5.00
2023-06-06T21:11:54.489Z,5.65
2023-06-06T21:14:29.907Z,5.40
2023-06-06T21:17:04.995Z,6.18
2023-06-06T21:19:38.377Z,5.38
2023-06-06T21:22:13.072Z,5.32
2023-06-06T21:24:46.380Z,5.93
2023-06-06T21:27:22.204Z,5.72
2023-06-06T21:29:55.657Z,5.70
2023-06-06T21:32:28.977Z,5.75
2023-06-06T21:35:02.284Z,5.65
2023-06-06T21:37:36.983Z,5.63
2023-06-06T21:40:11.812Z,4.82
2023-06-06T21:42:47.643Z,6.65
2023-06-06T21:45:21.061Z,5.65
2023-06-06T21:47:54.330Z,4.93
2023-06-06T21:50:27.772Z,6.97
2023-06-06T21:53:02.382Z,5.40
2023-06-06T21:55:35.659Z,5.25
2023-06-06T21:58:08.961Z,4.95
2023-06-06T22:00:42.387Z,5.28
2023-06-06T22:03:15.693Z,4.85
2023-06-06T22:05:49.026Z,5.07
2023-06-06T22:08:23.616Z,5.20
2023-06-06T22:10:57.130Z,6.25
2023-06-06T22:13:30.377Z,5.95
2023-06-06T22:16:04.378Z,5.32
2023-06-06T22:18:39.098Z,4.95
2023-06-06T22:21:12.386Z,5.15
2023-06-06T22:23:47.075Z,5.55
2023-06-06T22:26:20.467Z,4.93
2023-06-06T22:28:53.793Z,5.35
2023-06-06T22:31:27.067Z,5.38
2023-06-06T22:34:00.391Z,5.13
2023-06-06T22:36:33.611Z,5.22
2023-06-06T22:39:09.560Z,4.97
2023-06-06T22:41:42.892Z,6.40
2023-06-06T22:44:16.199Z,5.38
2023-06-06T22:46:49.416Z,5.25
2023-06-06T22:49:22.676Z,5.18
2023-06-06T22:51:55.928Z,5.28
2023-06-06T22:54:30.524Z,6.18
2023-06-06T22:57:03.800Z,5.53
2023-06-06T22:59:37.111Z,5.95
2023-06-06T23:02:10.431Z,4.75
2023-06-06T23:04:43.689Z,5.70
2023-06-06T23:07:17.040Z,4.93
2023-06-06T23:09:51.613Z,4.95
2023-06-06T23:12:24.933Z,5.65
2023-06-06T23:14:59.396Z,4.60
2023-06-06T23:17:34.655Z,5.60
2023-06-06T23:20:12.897Z,5.95
2023-06-06T23:22:47.425Z,4.80
2023-06-06T23:25:22.290Z,4.90
2023-06-06T23:27:55.946Z,5.30
2023-06-06T23:30:29.242Z,5.80
2023-06-06T23:33:02.566Z,5.32
2023-06-06T23:35:35.898Z,5.72
2023-06-06T23:38:09.532Z,4.97
2023-06-06T23:40:44.214Z,5.65
2023-06-06T23:43:17.427Z,4.95
2023-06-06T23:45:50.771Z,5.45
2023-06-06T23:48:24.040Z,5.55
2023-06-06T23:50:57.287Z,4.78
2023-06-06T23:53:30.634Z,5.53
2023-06-06T23:56:05.296Z,5.07
2023-06-06T23:58:38.548Z,4.53
